Historique des mesures à Cassis (13260), France
Quotidien Résumé Mai 6, 2018 Unités:  Métrique    US   Métrique/US
« Précédent (Jour)
Suivant (Jour) »
Quotidien Hebdomadaire Mensuel Annuel Période au choix
  Maximum: Minimum: Moyenne:
Température: TemperatureC °C 17.3 °C 19.1 °C
Point de rosée: DewpointC °C 12.6 °C 14.1 °C
Humidité: Humidity % 63 % 70 %
Vitesse du vent: 0 km/h 0 km/h 3.2 km/h
Rafales: 0 km/h - -
Vent:- - SSW
Pression: PressurehPa hPa 1011.7 hPa -
Précipitations: 1.0 mm    
Historical Graphs
 
 
Mesures pour : Mai 6, 2018
Heure Temperature Point de rosée Pression Vent Vitesse du vent Rafales Humidité Pluie (par heure) Conditions
TemperatureC °C DewpointC °C PressurehPa hPa Calm     Humidity % HourlyPrecipMM mm SoftwareType W/m2
00:11 18.4 °C 13.7 °C 1012.4 hPa NNW 2.3 km/h 3.4 km/h 74 % 0.0 mm open2300-1.11 W/m2
01:11 17.9 °C 13.4 °C 1012.4 hPa North 3.4 km/h 4.2 km/h 75 % 0.0 mm open2300-1.11 W/m2
02:11 18.0 °C 13.5 °C 1012.1 hPa NNW 2.9 km/h 11.6 km/h 75 % 0.0 mm open2300-1.11 W/m2
03:10 17.8 °C 13.1 °C 1012.1 hPa Calm     74 % 0.0 mm open2300-1.11 W/m2
04:10 18.0 °C 13.1 °C 1012.1 hPa North 1.8 km/h 2.9 km/h 73 % 0.0 mm open2300-1.11 W/m2
05:10 17.5 °C 12.8 °C 1011.7 hPa Calm     74 % 0.0 mm open2300-1.11 W/m2
06:10 17.3 °C 12.6 °C 1011.7 hPa WNW 7.6 km/h 7.6 km/h 74 % 0.0 mm open2300-1.11 W/m2
07:10 17.3 °C 12.6 °C 1012.4 hPa Calm   7.6 km/h 74 % 0.0 mm open2300-1.11 W/m2
08:10 17.7 °C 13.0 °C 1013.1 hPa Calm     74 % 0.0 mm open2300-1.11 W/m2
09:10 19.0 °C 14.2 °C 1013.4 hPa Calm   6.4 km/h 74 % 0.0 mm open2300-1.11 W/m2
10:10 19.6 °C 15.1 °C 1013.8 hPa Calm   4.7 km/h 75 % 0.0 mm open2300-1.11 W/m2
11:10 23.0 °C 17.1 °C 1013.1 hPa Calm   5.1 km/h 69 % 0.0 mm open2300-1.11 W/m2
12:10 24.1 °C 17.3 °C 1013.1 hPa ESE 8 km/h 8 km/h 66 % 0.0 mm open2300-1.11 W/m2
13:12 24.1 °C 16.8 °C 1012.8 hPa SE 4.2 km/h 4.7 km/h 64 % 0.0 mm open2300-1.11 W/m2
14:11 23.6 °C 16.1 °C 1012.8 hPa SSE 6.9 km/h 6.9 km/h 63 % 0.0 mm open2300-1.11 W/m2
15:11 22.9 °C 16.2 °C 1012.8 hPa SE 3.4 km/h 4.2 km/h 66 % 0.0 mm open2300-1.11 W/m2
16:12 22.6 °C 16.2 °C 1012.1 hPa Calm   7.6 km/h 67 % 0.0 mm open2300-1.11 W/m2
17:12 22.1 °C 15.9 °C 1011.7 hPa Calm     68 % 0.0 mm open2300-1.11 W/m2
18:11 22.0 °C 15.8 °C 1011.7 hPa WNW 6.4 km/h 6.4 km/h 68 % 0.0 mm open2300-1.11 W/m2
19:11 20.1 °C 15.3 °C 1012.1 hPa WNW 19.2 km/h 19.2 km/h 74 % 0.0 mm open2300-1.11 W/m2
20:11 18.9 °C 15.2 °C 1012.1 hPa North 5.1 km/h 5.1 km/h 79 % 1.0 mm open2300-1.11 W/m2
21:11 18.6 °C 15.1 °C 1012.4 hPa NW 1.8 km/h 2.3 km/h 80 % 0.0 mm open2300-1.11 W/m2
22:11 18.3 °C 14.6 °C 1012.4 hPa NNW 4.2 km/h 14.5 km/h 79 % 0.0 mm open2300-1.11 W/m2
23:11 18.2 °C 14.7 °C 1012.4 hPa NNW 2.3 km/h 5.1 km/h 80 % 0.0 mm open2300-1.11 W/m2
Observations météo à CASSIS
WU-History script by Weather Underground - 1 mb